Time;durP1;ratioP1;P1;durP2;ratioP2;P2;SDS_P1;SDS_P2;PMS_P1;PMS_P2;Temp;Humidity;BMP_temperature;BMP_pressure;BME280_temperature;BME280_humidity;BME280_pressure;Samples;Min_cycle;Max_cycle;Signal;HPM_P1;HPM_P2
2022/08/18 00:02:27;;;;;;;9.00;7.63;;;18.80;99.90;;;;;;6251980;23;20384;-46
2022/08/18 00:04:53;;;;;;;8.03;7.33;;;18.70;99.90;;;;;;6251155;23;20408;-44
2022/08/18 00:07:28;;;;;;;9.63;8.83;;;18.60;99.90;;;;;;6252198;23;20652;-46
2022/08/18 00:09:54;;;;;;;9.80;8.90;;;18.50;99.90;;;;;;6252320;23;20373;-44
2022/08/18 00:12:25;;;;;;;9.23;8.43;;;18.50;99.90;;;;;;6251381;23;20660;-46
2022/08/18 00:14:52;;;;;;;7.80;7.20;;;18.50;99.90;;;;;;6252878;23;20149;-45
2022/08/18 00:17:19;;;;;;;7.97;7.37;;;18.50;99.90;;;;;;6226205;23;20501;-46
2022/08/18 00:19:45;;;;;;;8.10;7.40;;;18.60;99.90;;;;;;6251874;22;20413;-45
2022/08/18 00:22:14;;;;;;;9.40;8.63;;;18.80;99.90;;;;;;6252314;23;20391;-44
2022/08/18 00:24:40;;;;;;;7.80;7.20;;;18.90;99.90;;;;;;6252856;23;20389;-45
2022/08/18 00:27:09;;;;;;;7.83;7.23;;;19.00;99.90;;;;;;6252441;23;20368;-43
2022/08/18 00:29:35;;;;;;;7.63;7.03;;;19.10;99.90;;;;;;6252940;23;20420;-46
2022/08/18 00:32:14;;;;;;;9.67;8.70;;;19.20;99.90;;;;;;6252059;23;20788;-47
2022/08/18 00:34:40;;;;;;;8.67;7.60;;;19.20;99.80;;;;;;6251785;23;20208;-45
2022/08/18 00:37:06;;;;;;;7.90;7.20;;;19.20;99.90;;;;;;6252440;23;20407;-43
2022/08/18 00:39:33;;;;;;;7.90;7.30;;;19.20;99.90;;;;;;6251982;23;20546;-45
2022/08/18 00:41:59;;;;;;;7.40;6.70;;;19.20;99.90;;;;;;6250451;23;20164;-44
2022/08/18 00:44:24;;;;;;;7.70;7.10;;;19.30;99.70;;;;;;6250420;23;20395;-43
2022/08/18 00:46:50;;;;;;;7.70;7.00;;;19.20;99.80;;;;;;6251103;23;20453;-46
2022/08/18 00:49:17;;;;;;;8.33;7.63;;;19.30;99.90;;;;;;6251063;23;20458;-43
2022/08/18 00:51:48;;;;;;;7.10;6.50;;;19.30;99.90;;;;;;6250186;23;20145;-46
2022/08/18 00:54:27;;;;;;;8.57;7.77;;;19.30;99.60;;;;;;6249495;23;20673;-45
2022/08/18 00:56:57;;;;;;;7.37;6.80;;;19.40;99.40;;;;;;6248782;23;20443;-44
2022/08/18 00:59:25;;;;;;;7.27;6.70;;;19.50;99.50;;;;;;6249676;23;20771;-43
2022/08/18 01:01:52;;;;;;;7.70;7.10;;;19.60;99.00;;;;;;6250528;23;20362;-45
2022/08/18 01:04:36;;;;;;;7.60;7.00;;;19.70;98.80;;;;;;6249339;23;20361;-44
2022/08/18 01:07:10;;;;;;;7.10;6.60;;;19.70;98.70;;;;;;6250423;23;20386;-46
2022/08/18 01:09:35;;;;;;;8.07;7.27;;;19.80;98.60;;;;;;6250282;23;20357;-45
2022/08/18 01:12:01;;;;;;;7.63;6.93;;;19.80;98.50;;;;;;6249325;23;20394;-44
2022/08/18 01:14:27;;;;;;;8.30;6.93;;;19.90;98.40;;;;;;6249918;23;20542;-45
2022/08/18 01:22:27;;;;;;;7.97;7.27;;;19.90;98.40;;;;;;6248257;23;20415;-43
2022/08/18 01:27:40;;;;;;;7.53;6.77;;;19.90;99.00;;;;;;6248538;23;20433;-45
2022/08/18 01:30:11;;;;;;;7.63;7.03;;;19.70;99.40;;;;;;6249458;23;20650;-47
2022/08/18 01:32:37;;;;;;;7.30;6.70;;;19.60;99.60;;;;;;6249615;23;20393;-46
2022/08/18 01:35:04;;;;;;;8.70;8.00;;;19.50;99.70;;;;;;6249495;23;20438;-44
2022/08/18 01:37:30;;;;;;;7.97;7.27;;;19.50;99.80;;;;;;6249089;23;20433;-44
2022/08/18 01:39:55;;;;;;;7.40;6.80;;;19.60;99.70;;;;;;6249772;23;20392;-44
2022/08/18 01:42:21;;;;;;;8.40;7.70;;;19.50;99.70;;;;;;6250509;23;20210;-48
2022/08/18 01:44:49;;;;;;;8.80;8.10;;;19.50;99.80;;;;;;6250072;23;20512;-44
2022/08/18 01:47:17;;;;;;;8.17;7.37;;;19.40;99.90;;;;;;6249945;23;20160;-48
2022/08/18 01:49:42;;;;;;;8.00;7.40;;;19.30;99.90;;;;;;6249254;23;20397;-45
2022/08/18 01:52:10;;;;;;;7.47;6.80;;;19.30;99.90;;;;;;6249237;23;20387;-46
2022/08/18 01:54:36;;;;;;;8.13;7.47;;;19.30;99.90;;;;;;6249256;23;20459;-45
2022/08/18 01:57:03;;;;;;;7.83;7.23;;;19.40;99.90;;;;;;6248404;23;20851;-47
2022/08/18 01:59:28;;;;;;;8.20;7.57;;;19.40;99.90;;;;;;6248904;23;20135;-43
2022/08/18 02:01:55;;;;;;;9.17;8.40;;;19.50;99.90;;;;;;6249523;23;20389;-47
2022/08/18 02:04:26;;;;;;;7.60;6.90;;;19.40;99.90;;;;;;6249672;23;20177;-45
2022/08/18 02:06:52;;;;;;;7.20;6.70;;;19.40;99.90;;;;;;6248507;23;20387;-52
2022/08/18 02:09:18;;;;;;;8.77;8.03;;;19.40;99.90;;;;;;6248339;23;20372;-46
2022/08/18 02:11:43;;;;;;;9.13;8.20;;;19.40;99.90;;;;;;6249073;23;20780;-45
2022/08/18 02:14:09;;;;;;;8.10;7.50;;;19.40;99.90;;;;;;6249534;23;20270;-51
2022/08/18 02:16:35;;;;;;;7.60;6.90;;;19.40;99.90;;;;;;6249072;23;20583;-45
2022/08/18 02:19:00;;;;;;;8.13;7.43;;;19.30;99.90;;;;;;6249039;23;20227;-51
2022/08/18 02:21:26;;;;;;;8.70;8.00;;;19.30;99.90;;;;;;6248055;23;20149;-45
2022/08/18 02:23:52;;;;;;;8.63;7.83;;;19.30;99.90;;;;;;6247983;23;20165;-47
2022/08/18 02:26:18;;;;;;;7.30;6.70;;;19.30;99.90;;;;;;6248376;23;20141;-48
2022/08/18 02:28:44;;;;;;;7.10;6.60;;;19.30;99.90;;;;;;6247459;23;20149;-46
2022/08/18 02:31:13;;;;;;;7.43;6.83;;;19.40;99.90;;;;;;6247184;23;20410;-47
2022/08/18 02:33:39;;;;;;;7.87;7.23;;;19.40;99.80;;;;;;6248615;23;20703;-45
2022/08/18 02:36:05;;;;;;;9.10;8.20;;;19.50;99.70;;;;;;6249501;23;20422;-44
2022/08/18 02:38:32;;;;;;;7.77;7.10;;;19.50;99.60;;;;;;6250364;23;20386;-45
2022/08/18 02:41:01;;;;;;;8.00;7.30;;;19.50;99.60;;;;;;6249275;23;20365;-45
2022/08/18 02:43:28;;;;;;;8.03;7.27;;;19.60;99.50;;;;;;6248709;23;20466;-43
2022/08/18 02:45:54;;;;;;;7.37;6.70;;;19.60;99.40;;;;;;6247975;23;20759;-45
2022/08/18 02:48:38;;;;;;;7.97;7.27;;;19.60;99.40;;;;;;6247050;23;20411;-46
2022/08/18 02:51:15;;;;;;;7.57;6.87;;;19.60;99.60;;;;;;6247961;23;20360;-46
2022/08/18 02:53:42;;;;;;;8.57;7.87;;;19.50;99.50;;;;;;6247645;23;20365;-46
2022/08/18 02:58:43;;;;;;;8.33;7.57;;;19.40;99.80;;;;;;6248247;23;20397;-45
2022/08/18 03:01:09;;;;;;;8.90;8.10;;;19.40;99.90;;;;;;6248352;23;20360;-45
2022/08/18 03:03:35;;;;;;;7.80;7.10;;;19.50;99.90;;;;;;6247539;23;20167;-48
2022/08/18 03:06:01;;;;;;;8.40;7.70;;;19.50;99.90;;;;;;6249365;23;20368;-45
2022/08/18 03:08:26;;;;;;;8.63;7.90;;;19.50;99.90;;;;;;6247548;23;20158;-44
2022/08/18 03:10:52;;;;;;;8.50;7.80;;;19.40;99.90;;;;;;6246530;23;20139;-47
2022/08/18 03:13:18;;;;;;;9.10;8.30;;;19.30;99.90;;;;;;6245489;23;20152;-48
2022/08/18 03:15:44;;;;;;;8.63;7.83;;;19.30;99.90;;;;;;6245890;23;20444;-45
2022/08/18 03:18:11;;;;;;;9.90;8.60;;;19.20;99.90;;;;;;6247089;23;20140;-46
2022/08/18 03:20:36;;;;;;;10.67;9.63;;;19.20;99.90;;;;;;6246972;23;20154;-45
2022/08/18 03:23:04;;;;;;;10.70;9.80;;;19.20;99.90;;;;;;6246671;23;20645;-45
2022/08/18 03:25:30;;;;;;;11.43;8.23;;;19.10;99.90;;;;;;6248854;23;20392;-46
2022/08/18 03:27:55;;;;;;;8.60;7.93;;;19.00;99.90;;;;;;6248831;23;20356;-46
2022/08/18 03:30:22;;;;;;;9.80;8.90;;;19.10;99.90;;;;;;6248634;23;20450;-55
2022/08/18 03:32:48;;;;;;;8.90;8.10;;;19.10;99.90;;;;;;6247582;23;20181;-46
2022/08/18 03:35:15;;;;;;;8.13;7.50;;;19.10;99.90;;;;;;6248779;23;20510;-45
2022/08/18 03:37:41;;;;;;;8.87;8.07;;;19.20;99.90;;;;;;6249165;23;20831;-46
2022/08/18 03:40:09;;;;;;;8.87;8.07;;;19.20;99.90;;;;;;6247598;23;20408;-46
2022/08/18 03:42:36;;;;;;;9.90;8.93;;;19.20;99.90;;;;;;6248950;22;20665;-48
2022/08/18 03:45:02;;;;;;;9.73;8.90;;;19.30;99.90;;;;;;6247643;23;20648;-46
2022/08/18 03:47:28;;;;;;;8.50;7.80;;;19.30;99.90;;;;;;6247663;23;20373;-46
2022/08/18 03:49:53;;;;;;;8.40;7.70;;;19.30;99.90;;;;;;6247527;23;20385;-47
2022/08/18 03:52:19;;;;;;;8.97;8.27;;;19.30;99.90;;;;;;6248780;23;20167;-44
2022/08/18 03:54:45;;;;;;;9.60;8.80;;;19.30;99.90;;;;;;6248025;23;20485;-45
2022/08/18 03:57:11;;;;;;;9.67;8.87;;;19.20;99.90;;;;;;6247406;23;20462;-46
2022/08/18 03:59:42;;;;;;;8.67;7.97;;;19.20;99.90;;;;;;6247430;23;20379;-46
2022/08/18 04:02:08;;;;;;;9.47;8.60;;;19.20;99.90;;;;;;6245192;23;20458;-45
2022/08/18 04:04:34;;;;;;;9.07;8.30;;;19.30;99.90;;;;;;6242082;23;20402;-45
2022/08/18 04:07:07;;;;;;;9.50;8.67;;;19.30;99.90;;;;;;6243954;23;20361;-46
2022/08/18 04:09:35;;;;;;;9.60;8.80;;;19.30;99.90;;;;;;6244702;23;20160;-45
2022/08/18 04:12:10;;;;;;;9.07;8.33;;;19.30;99.90;;;;;;6245423;23;20379;-46
2022/08/18 04:14:37;;;;;;;9.00;8.30;;;19.30;99.90;;;;;;6245859;23;20872;-45
2022/08/18 04:17:03;;;;;;;9.33;8.57;;;19.30;99.90;;;;;;6245021;23;20428;-49
2022/08/18 04:19:32;;;;;;;9.30;8.50;;;19.30;99.90;;;;;;6246978;23;20464;-45
2022/08/18 04:21:58;;;;;;;9.27;8.57;;;19.40;99.90;;;;;;6245674;23;20458;-45
2022/08/18 04:24:25;;;;;;;9.23;8.53;;;19.40;99.90;;;;;;6244554;23;20372;-47
2022/08/18 04:26:51;;;;;;;9.10;8.30;;;19.50;99.90;;;;;;6246338;23;20429;-45
2022/08/18 04:29:19;;;;;;;7.97;7.20;;;19.50;99.90;;;;;;6246230;23;20353;-44
2022/08/18 04:31:45;;;;;;;8.53;7.67;;;19.60;99.90;;;;;;6246583;23;20359;-50
2022/08/18 04:34:11;;;;;;;10.30;9.20;;;19.60;99.90;;;;;;6248509;23;20424;-51
2022/08/18 04:36:37;;;;;;;7.37;6.77;;;19.60;99.90;;;;;;6247738;22;20417;-49
2022/08/18 04:39:05;;;;;;;8.53;7.83;;;19.60;99.90;;;;;;6247651;23;20154;-50
2022/08/18 04:41:31;;;;;;;8.23;7.53;;;19.70;99.90;;;;;;6247764;23;20519;-47
2022/08/18 04:43:58;;;;;;;8.80;8.10;;;19.80;99.90;;;;;;6247005;23;20354;-49
2022/08/18 04:46:26;;;;;;;9.57;8.57;;;19.80;99.80;;;;;;6246717;23;20386;-50
2022/08/18 04:48:57;;;;;;;8.33;7.73;;;19.90;99.70;;;;;;6246299;23;20834;-48
2022/08/18 04:51:24;;;;;;;8.03;7.33;;;19.90;99.80;;;;;;6247230;23;20443;-49
2022/08/18 04:53:49;;;;;;;8.43;7.63;;;20.00;99.40;;;;;;6247992;23;20367;-50
2022/08/18 04:56:26;;;;;;;9.20;8.40;;;20.00;99.30;;;;;;6248996;23;20517;-48
2022/08/18 04:58:54;;;;;;;8.60;7.90;;;20.10;99.20;;;;;;6249687;23;20219;-49
2022/08/18 05:01:22;;;;;;;8.90;8.20;;;20.10;99.10;;;;;;6247618;23;20473;-53
2022/08/18 05:03:50;;;;;;;9.17;8.40;;;20.20;99.00;;;;;;6244817;23;20388;-54
2022/08/18 05:06:16;;;;;;;8.50;7.80;;;20.20;99.10;;;;;;6248236;23;20383;-50
2022/08/18 05:08:41;;;;;;;8.97;8.13;;;20.20;99.00;;;;;;6247101;23;20364;-50
2022/08/18 05:11:08;;;;;;;8.23;7.53;;;20.20;98.90;;;;;;6247490;23;20406;-47
2022/08/18 05:13:33;;;;;;;8.07;7.47;;;20.20;98.80;;;;;;6247616;23;20166;-51
2022/08/18 05:16:03;;;;;;;8.10;7.50;;;20.30;98.80;;;;;;6245673;23;20455;-49
2022/08/18 05:18:32;;;;;;;8.33;7.63;;;20.30;98.80;;;;;;6247796;23;20516;-48
2022/08/18 05:20:59;;;;;;;9.93;9.13;;;20.30;98.80;;;;;;6243507;23;20395;-48
2022/08/18 05:23:25;;;;;;;8.80;8.10;;;20.40;98.70;;;;;;6243877;23;20364;-50
2022/08/18 05:25:56;;;;;;;8.57;7.87;;;20.40;98.70;;;;;;6245353;23;20399;-47
2022/08/18 05:28:22;;;;;;;8.77;8.03;;;20.40;98.70;;;;;;6241232;23;20407;-52
2022/08/18 05:30:47;;;;;;;8.67;7.97;;;20.50;98.60;;;;;;6243386;23;20390;-49
2022/08/18 05:33:13;;;;;;;8.77;8.00;;;20.60;98.40;;;;;;6243898;23;20183;-49
2022/08/18 05:35:48;;;;;;;9.50;8.60;;;20.70;98.30;;;;;;6243503;23;20166;-47
2022/08/18 05:38:37;;;;;;;9.53;8.70;;;20.70;98.10;;;;;;6246515;23;20134;-48
2022/08/18 05:41:27;;;;;;;9.80;9.00;;;20.80;98.10;;;;;;6243885;23;20671;-49
2022/08/18 05:43:53;;;;;;;10.20;9.30;;;20.80;97.80;;;;;;6245409;23;20357;-50
2022/08/18 05:46:31;;;;;;;10.00;9.10;;;20.80;97.80;;;;;;6246031;23;20534;-48
2022/08/18 05:48:57;;;;;;;10.07;9.17;;;20.80;97.90;;;;;;6242465;23;20370;-50
2022/08/18 05:51:29;;;;;;;9.77;8.77;;;20.80;97.90;;;;;;6243277;23;20799;-50
2022/08/18 05:56:45;;;;;;;9.93;9.13;;;20.80;98.20;;;;;;6245237;23;20480;-47
2022/08/18 05:59:15;;;;;;;10.63;9.73;;;20.70;98.20;;;;;;6244506;23;20639;-49
2022/08/18 06:01:44;;;;;;;10.20;9.33;;;20.60;98.30;;;;;;6243572;23;20677;-49
2022/08/18 06:04:33;;;;;;;8.80;8.10;;;20.60;98.20;;;;;;6246494;23;20351;-54
2022/08/18 06:07:02;;;;;;;10.20;9.40;;;20.60;98.20;;;;;;6247511;23;20447;-52
2022/08/18 06:09:49;;;;;;;10.07;9.07;;;20.60;98.10;;;;;;6244967;22;20402;-49
2022/08/18 06:12:41;;;;;;;9.53;8.10;;;20.70;98.20;;;;;;6246385;22;20405;-49
2022/08/18 06:15:23;;;;;;;9.97;9.17;;;20.70;98.20;;;;;;6242823;23;20429;-48
2022/08/18 06:18:22;;;;;;;9.37;8.67;;;20.80;98.20;;;;;;6247609;23;20701;-46
2022/08/18 06:21:09;;;;;;;10.80;9.70;;;20.90;98.10;;;;;;6245219;23;20386;-45
2022/08/18 06:23:50;;;;;;;11.00;10.00;;;21.00;97.90;;;;;;6244053;23;20685;-47
2022/08/18 06:26:23;;;;;;;10.13;9.23;;;21.00;97.90;;;;;;6244952;23;20379;-45
2022/08/18 06:29:07;;;;;;;10.17;9.17;;;21.00;97.80;;;;;;6244148;23;20405;-47
2022/08/18 06:31:46;;;;;;;9.47;8.67;;;21.00;98.00;;;;;;6248330;23;20379;-47
2022/08/18 06:34:22;;;;;;;9.67;8.77;;;21.10;98.00;;;;;;6246733;22;20453;-45
2022/08/18 06:36:57;;;;;;;9.53;8.63;;;21.20;97.90;;;;;;6247016;23;20427;-45
2022/08/18 06:39:33;;;;;;;8.50;7.80;;;21.30;97.70;;;;;;6246351;23;20425;-45
2022/08/18 06:41:59;;;;;;;8.77;8.07;;;21.40;97.60;;;;;;6246810;23;20387;-47
2022/08/18 06:44:44;;;;;;;8.60;7.90;;;21.50;97.30;;;;;;6246446;22;20772;-45
2022/08/18 06:47:27;;;;;;;9.27;8.57;;;21.70;97.10;;;;;;6246085;23;20709;-46
2022/08/18 06:50:07;;;;;;;9.47;8.67;;;21.80;96.80;;;;;;6246496;23;20384;-49
2022/08/18 06:52:39;;;;;;;9.23;8.53;;;22.00;96.60;;;;;;6247819;23;20378;-44
2022/08/18 06:55:17;;;;;;;8.53;7.73;;;22.10;96.30;;;;;;6245686;23;20391;-49
2022/08/18 06:57:58;;;;;;;8.80;8.10;;;22.10;95.90;;;;;;6245140;23;20408;-47
2022/08/18 07:00:26;;;;;;;9.17;8.30;;;22.10;95.80;;;;;;6246007;23;20400;-52
2022/08/18 07:03:13;;;;;;;8.43;7.73;;;22.20;95.90;;;;;;6244972;23;20357;-50
2022/08/18 07:06:07;;;;;;;8.57;7.77;;;22.30;95.60;;;;;;6243552;23;20867;-52
2022/08/18 07:08:36;;;;;;;8.77;8.03;;;22.30;95.10;;;;;;6243484;23;20396;-51
2022/08/18 07:11:31;;;;;;;7.80;7.20;;;22.40;94.80;;;;;;6243447;23;20382;-50
2022/08/18 07:14:20;;;;;;;7.50;6.80;;;22.40;94.80;;;;;;6242650;23;20512;-47
2022/08/18 07:16:50;;;;;;;8.13;7.53;;;22.40;94.70;;;;;;6242293;23;20428;-49
2022/08/18 07:19:21;;;;;;;9.30;8.60;;;22.40;94.50;;;;;;6242086;23;20831;-49
2022/08/18 07:22:10;;;;;;;7.77;7.17;;;22.30;94.50;;;;;;6242215;23;20452;-51
2022/08/18 07:24:51;;;;;;;9.60;8.70;;;22.20;94.60;;;;;;6220211;23;20437;-52
2022/08/18 07:27:21;;;;;;;10.17;9.27;;;21.90;95.20;;;;;;6244754;23;20392;-50
2022/08/18 07:30:25;;;;;;;9.60;8.90;;;21.80;95.90;;;;;;6246683;23;20390;-53
2022/08/18 07:33:13;;;;;;;11.13;10.27;;;21.40;96.90;;;;;;6200426;22;20402;-49
2022/08/18 07:35:44;;;;;;;10.33;9.47;;;21.20;97.60;;;;;;6217250;23;20390;-46
2022/08/18 07:38:16;;;;;;;10.23;9.30;;;21.10;97.70;;;;;;6166449;23;20457;-50
2022/08/18 07:40:55;;;;;;;8.50;7.80;;;21.10;97.70;;;;;;6191705;23;20357;-49
2022/08/18 07:43:28;;;;;;;9.57;8.67;;;21.10;97.80;;;;;;6165723;23;20448;-50
2022/08/18 07:45:57;;;;;;;9.33;8.60;;;21.10;97.50;;;;;;6215508;23;20789;-51
2022/08/18 07:48:24;;;;;;;10.47;9.63;;;21.20;97.20;;;;;;6215469;23;20375;-45
2022/08/18 07:51:08;;;;;;;10.93;9.83;;;21.30;97.00;;;;;;6191654;23;20715;-45
2022/08/18 07:53:59;;;;;;;10.60;9.80;;;21.30;97.00;;;;;;6218806;23;20379;-48
2022/08/18 07:56:38;;;;;;;8.90;8.20;;;21.20;97.00;;;;;;6191709;23;20404;-49
2022/08/18 07:59:25;;;;;;;8.90;8.20;;;21.10;97.20;;;;;;6188853;23;20472;-48
2022/08/18 08:02:24;;;;;;;8.60;7.90;;;21.20;97.40;;;;;;6216137;23;20380;-49
2022/08/18 08:05:13;;;;;;;9.17;8.37;;;21.20;97.40;;;;;;6189748;23;20397;-49
2022/08/18 08:07:49;;;;;;;8.30;7.60;;;21.30;97.30;;;;;;6189144;23;20394;-50
2022/08/18 08:10:42;;;;;;;9.60;8.90;;;21.60;97.30;;;;;;6190246;23;20367;-48
2022/08/18 08:13:27;;;;;;;8.67;7.87;;;21.70;97.00;;;;;;6216248;23;20399;-48
2022/08/18 08:16:07;;;;;;;9.37;8.57;;;22.00;97.00;;;;;;6215053;23;20433;-45
2022/08/18 08:18:44;;;;;;;9.03;8.30;;;22.20;96.60;;;;;;6188543;23;20377;-49
2022/08/18 08:21:14;;;;;;;9.70;8.90;;;22.40;96.20;;;;;;6164599;23;20385;-47
2022/08/18 08:23:59;;;;;;;9.40;8.53;;;22.50;95.60;;;;;;6216509;23;20369;-50
2022/08/18 08:26:43;;;;;;;10.20;9.30;;;22.70;95.30;;;;;;6190489;23;20648;-50
2022/08/18 08:29:33;;;;;;;9.20;8.40;;;22.90;95.10;;;;;;6191743;23;20402;-51
2022/08/18 08:32:10;;;;;;;8.67;7.97;;;23.10;94.60;;;;;;6191972;23;20374;-46
2022/08/18 08:34:53;;;;;;;10.00;9.17;;;23.30;93.90;;;;;;6234688;23;20845;-50
2022/08/18 08:37:27;;;;;;;9.63;8.93;;;23.50;93.80;;;;;;6244073;23;20430;-50
2022/08/18 08:40:00;;;;;;;11.10;9.40;;;23.50;94.00;;;;;;6243606;23;20824;-50
2022/08/18 08:42:39;;;;;;;10.03;9.20;;;23.60;94.20;;;;;;6244778;23;20453;-48
2022/08/18 08:45:18;;;;;;;9.97;9.17;;;23.80;93.80;;;;;;6243804;23;20359;-50
2022/08/18 08:47:53;;;;;;;9.50;8.70;;;24.00;93.30;;;;;;6245163;23;20387;-47
2022/08/18 08:50:24;;;;;;;9.20;8.50;;;24.00;92.90;;;;;;6246485;23;20371;-51
2022/08/18 08:53:15;;;;;;;9.63;8.83;;;24.00;92.80;;;;;;6246047;23;20418;-49
2022/08/18 08:55:45;;;;;;;10.93;10.03;;;24.10;92.80;;;;;;6246385;23;20474;-53
2022/08/18 08:58:21;;;;;;;10.30;9.60;;;24.30;92.50;;;;;;6246437;23;20356;-53
2022/08/18 09:00:48;;;;;;;10.80;9.73;;;24.40;92.20;;;;;;6244498;23;20362;-51
2022/08/18 09:03:38;;;;;;;11.13;10.23;;;24.40;92.30;;;;;;6244561;23;20684;-50
2022/08/18 09:06:33;;;;;;;11.47;10.57;;;24.60;92.10;;;;;;6244478;23;20398;-47
2022/08/18 09:09:51;;;;;;;10.73;9.83;;;25.00;92.30;;;;;;6220830;23;20396;-48
2022/08/18 09:12:36;;;;;;;11.90;11.00;;;25.60;91.80;;;;;;6154482;23;20452;-48
2022/08/18 09:15:21;;;;;;;10.70;9.70;;;26.20;90.30;;;;;;6155333;23;20684;-45
2022/08/18 09:18:12;;;;;;;11.50;10.50;;;26.50;89.90;;;;;;6230294;22;20439;-46
2022/08/18 09:21:00;;;;;;;10.30;9.60;;;26.80;87.10;;;;;;6247318;22;20393;-45
2022/08/18 09:23:41;;;;;;;9.40;8.70;;;27.10;87.30;;;;;;6246566;23;20369;-46
2022/08/18 09:26:47;;;;;;;9.93;9.13;;;27.40;86.00;;;;;;6218517;23;20383;-46
2022/08/18 09:29:46;;;;;;;10.07;9.27;;;27.80;84.50;;;;;;6246235;23;20391;-46
2022/08/18 09:32:21;;;;;;;10.37;9.33;;;28.30;82.70;;;;;;6246393;23;20335;-46
2022/08/18 09:35:24;;;;;;;10.90;9.93;;;28.50;79.60;;;;;;6248491;23;20499;-45
2022/08/18 09:44:08;;;;;;;11.83;10.03;;;28.50;78.60;;;;;;6248584;23;20405;-46
2022/08/18 09:46:40;;;;;;;11.23;10.43;;;28.80;78.30;;;;;;6249636;23;20346;-48
2022/08/18 09:49:21;;;;;;;10.70;9.90;;;29.10;75.20;;;;;;6248863;23;20462;-47
2022/08/18 09:51:47;;;;;;;10.50;9.70;;;28.80;73.50;;;;;;6246445;23;20367;-50
2022/08/18 09:54:21;;;;;;;10.73;9.93;;;28.40;75.30;;;;;;6245905;23;20927;-47
2022/08/18 09:56:50;;;;;;;10.33;9.63;;;28.30;75.90;;;;;;6245467;23;21220;-44
2022/08/18 09:59:36;;;;;;;9.80;9.10;;;28.20;74.90;;;;;;6246039;23;20379;-45
2022/08/18 10:02:27;;;;;;;9.23;8.53;;;28.00;76.10;;;;;;6245807;23;20365;-48
2022/08/18 10:05:14;;;;;;;10.10;9.20;;;28.00;77.10;;;;;;6203138;22;20381;-46
2022/08/18 10:08:00;;;;;;;9.70;9.00;;;28.20;76.90;;;;;;6245557;23;20388;-45
2022/08/18 10:10:48;;;;;;;10.20;9.50;;;28.30;76.60;;;;;;6245522;23;20394;-48
2022/08/18 10:13:17;;;;;;;10.77;9.80;;;28.40;76.00;;;;;;6244812;23;20359;-44
2022/08/18 10:16:07;;;;;;;12.63;11.67;;;28.50;75.50;;;;;;6246280;23;20332;-44
2022/08/18 10:18:42;;;;;;;11.00;10.10;;;27.70;75.80;;;;;;6243589;23;20344;-47
2022/08/18 10:21:21;;;;;;;11.10;10.30;;;27.70;77.60;;;;;;6245185;23;20386;-45
2022/08/18 10:24:02;;;;;;;11.13;10.23;;;27.80;77.60;;;;;;6247123;23;20347;-46
2022/08/18 10:26:30;;;;;;;11.37;10.53;;;27.90;77.50;;;;;;6245092;23;20371;-44
2022/08/18 10:29:05;;;;;;;11.30;10.40;;;28.00;78.30;;;;;;6246376;23;20387;-43
2022/08/18 10:31:54;;;;;;;10.90;10.10;;;28.20;77.60;;;;;;6246136;23;20419;-46
2022/08/18 10:34:41;;;;;;;10.63;9.87;;;28.50;77.20;;;;;;6246557;23;20439;-47
2022/08/18 10:37:25;;;;;;;11.93;11.03;;;28.60;75.80;;;;;;6245899;23;20439;-45
2022/08/18 10:39:53;;;;;;;10.73;9.93;;;28.40;76.00;;;;;;6246377;23;20391;-46
2022/08/18 10:42:28;;;;;;;11.13;10.27;;;28.50;75.70;;;;;;6243181;23;20362;-46
2022/08/18 10:45:18;;;;;;;11.83;11.00;;;28.00;76.20;;;;;;6243286;23;20384;-45
2022/08/18 10:47:58;;;;;;;11.53;10.70;;;27.80;76.00;;;;;;6245977;23;20388;-46
2022/08/18 10:50:25;;;;;;;10.10;9.30;;;27.40;76.50;;;;;;6245145;23;20383;-45
2022/08/18 10:53:06;;;;;;;10.33;9.63;;;27.20;77.50;;;;;;6244291;23;20396;-49
2022/08/18 10:56:01;;;;;;;10.40;9.70;;;27.20;78.50;;;;;;6244461;23;20392;-45
2022/08/18 10:59:05;;;;;;;10.50;9.70;;;27.00;79.00;;;;;;6245086;23;20373;-46
2022/08/18 11:01:56;;;;;;;10.97;10.17;;;26.90;79.90;;;;;;6230768;23;20392;-46
2022/08/18 11:04:40;;;;;;;11.10;10.17;;;26.70;81.00;;;;;;6246483;23;20412;-44
2022/08/18 11:07:18;;;;;;;12.70;11.80;;;26.60;81.20;;;;;;6246408;23;20365;-45
2022/08/18 11:09:49;;;;;;;11.80;10.80;;;26.40;81.50;;;;;;6244701;23;20366;-45
2022/08/18 11:12:33;;;;;;;11.50;10.70;;;26.30;81.30;;;;;;6245597;23;20375;-46
2022/08/18 11:15:20;;;;;;;12.40;11.40;;;26.30;81.40;;;;;;6245042;23;20447;-45
2022/08/18 11:18:09;;;;;;;11.70;10.80;;;26.40;81.20;;;;;;6247104;23;20414;-45
2022/08/18 11:20:36;;;;;;;12.77;11.83;;;26.50;82.10;;;;;;6247861;22;20376;-46
2022/08/18 11:23:02;;;;;;;12.40;11.40;;;26.90;81.20;;;;;;6245775;23;20368;-44
2022/08/18 11:25:30;;;;;;;13.37;12.37;;;27.10;80.10;;;;;;6245712;23;20376;-46
2022/08/18 11:27:56;;;;;;;11.73;10.93;;;27.20;79.40;;;;;;6247257;23;20688;-44
2022/08/18 11:30:26;;;;;;;13.70;12.40;;;27.00;79.50;;;;;;6245932;23;20390;-44
2022/08/18 11:32:52;;;;;;;11.13;10.33;;;26.70;79.60;;;;;;6243593;23;20364;-44
2022/08/18 11:35:20;;;;;;;12.07;11.17;;;26.50;80.00;;;;;;6243998;23;20458;-49
2022/08/18 11:37:47;;;;;;;11.80;11.00;;;26.50;80.80;;;;;;6243105;23;20408;-43
2022/08/18 11:40:33;;;;;;;12.33;11.43;;;26.50;80.10;;;;;;6246056;23;20467;-46
2022/08/18 11:43:05;;;;;;;12.20;11.30;;;26.60;80.50;;;;;;6243919;23;20360;-44
2022/08/18 11:45:42;;;;;;;11.30;10.50;;;26.70;79.00;;;;;;6244686;23;20373;-44
2022/08/18 11:48:25;;;;;;;12.20;11.30;;;27.00;79.60;;;;;;6243868;23;20357;-45
2022/08/18 11:50:54;;;;;;;11.13;10.20;;;27.40;79.10;;;;;;6244728;23;20481;-43
2022/08/18 11:53:32;;;;;;;12.20;11.30;;;27.70;77.40;;;;;;6245868;23;20349;-45
2022/08/18 11:56:33;;;;;;;12.50;11.50;;;27.60;76.80;;;;;;6246660;23;20390;-44
2022/08/18 11:59:06;;;;;;;12.13;11.10;;;27.30;76.50;;;;;;6243711;22;20388;-45
2022/08/18 12:01:37;;;;;;;12.83;11.93;;;27.20;76.30;;;;;;6245930;23;20376;-44
2022/08/18 12:04:09;;;;;;;11.57;10.70;;;27.10;77.10;;;;;;6245611;23;20437;-46
2022/08/18 12:06:37;;;;;;;13.00;12.10;;;27.60;78.10;;;;;;6246520;22;20768;-45
2022/08/18 12:09:04;;;;;;;12.93;12.00;;;27.90;75.20;;;;;;6243293;23;20453;-47
2022/08/18 12:11:37;;;;;;;13.40;12.40;;;27.80;74.20;;;;;;6243631;23;20660;-46
2022/08/18 12:14:06;;;;;;;13.70;12.57;;;27.60;74.50;;;;;;6244555;23;20690;-47
2022/08/18 12:16:31;;;;;;;13.37;12.47;;;27.60;75.90;;;;;;6244431;23;20412;-45
2022/08/18 12:18:58;;;;;;;11.93;11.13;;;27.90;74.30;;;;;;6245190;23;20368;-45
2022/08/18 12:21:23;;;;;;;13.33;11.93;;;28.00;73.40;;;;;;6245852;23;20153;-44
2022/08/18 12:23:49;;;;;;;12.17;11.27;;;28.40;73.20;;;;;;6245920;23;20381;-45
2022/08/18 12:26:16;;;;;;;13.43;12.50;;;28.90;71.80;;;;;;6243621;23;20153;-44
2022/08/18 12:28:42;;;;;;;14.03;12.90;;;29.10;69.50;;;;;;6241837;23;20153;-47
2022/08/18 12:31:08;;;;;;;13.07;12.07;;;29.00;69.80;;;;;;6245329;23;20363;-45
2022/08/18 12:33:37;;;;;;;13.63;12.53;;;29.10;69.10;;;;;;6246609;23;20262;-45
2022/08/18 12:36:04;;;;;;;13.77;12.70;;;29.40;67.90;;;;;;6246549;23;20422;-44
2022/08/18 12:38:33;;;;;;;13.03;11.93;;;29.70;65.80;;;;;;6247242;23;20377;-44
2022/08/18 12:40:59;;;;;;;12.60;11.70;;;29.60;64.80;;;;;;6246299;23;20692;-46
2022/08/18 12:43:24;;;;;;;13.67;12.47;;;29.50;65.40;;;;;;6247822;23;20472;-47
2022/08/18 12:45:52;;;;;;;12.93;12.03;;;29.40;66.50;;;;;;6247193;23;20180;-46
2022/08/18 12:48:20;;;;;;;12.20;11.20;;;29.30;65.60;;;;;;6245574;23;20127;-47
2022/08/18 12:50:46;;;;;;;12.17;11.37;;;29.50;65.50;;;;;;6244420;23;20843;-46
2022/08/18 12:53:12;;;;;;;11.80;10.90;;;29.60;64.80;;;;;;6243400;23;20357;-45
2022/08/18 12:55:42;;;;;;;12.70;11.70;;;29.80;63.90;;;;;;6245622;23;20153;-46
2022/08/18 12:58:08;;;;;;;12.00;11.10;;;29.70;63.40;;;;;;6244893;23;20206;-44
2022/08/18 13:00:34;;;;;;;12.77;11.67;;;30.10;63.10;;;;;;6245105;23;21086;-44
2022/08/18 13:03:00;;;;;;;13.67;12.53;;;30.80;61.50;;;;;;6244504;23;20331;-56
2022/08/18 13:05:27;;;;;;;12.30;11.50;;;31.20;59.00;;;;;;6243906;23;20489;-50
2022/08/18 13:07:53;;;;;;;11.63;10.77;;;31.30;58.90;;;;;;6244312;23;20368;-47
2022/08/18 13:10:19;;;;;;;12.27;11.43;;;31.30;57.80;;;;;;6243212;22;20358;-47
2022/08/18 13:12:45;;;;;;;12.83;11.63;;;31.50;58.20;;;;;;6242911;23;20348;-47
2022/08/18 13:15:11;;;;;;;11.57;10.53;;;31.70;55.80;;;;;;6244963;23;20155;-45
2022/08/18 13:17:37;;;;;;;11.53;10.63;;;31.80;56.10;;;;;;6244656;23;20753;-45
2022/08/18 13:20:11;;;;;;;11.13;10.33;;;31.90;55.00;;;;;;6246261;23;20643;-46
2022/08/18 13:22:40;;;;;;;10.97;10.10;;;32.20;55.00;;;;;;6247241;23;20377;-48
2022/08/18 13:25:09;;;;;;;12.17;11.27;;;32.20;54.20;;;;;;6245434;23;20423;-45
2022/08/18 13:27:36;;;;;;;10.50;9.80;;;32.20;53.70;;;;;;6247444;23;20386;-45
2022/08/18 13:30:08;;;;;;;11.27;10.47;;;32.20;52.90;;;;;;6247298;23;20361;-47
2022/08/18 13:32:34;;;;;;;10.30;9.50;;;32.30;52.40;;;;;;6248278;23;20389;-46